sensor_id;sensor_type;location;lat;lon;timestamp;P1;durP1;ratioP1;P2;durP2;ratioP2
46589;SDS011;32313;48.722;9.362;2024-01-07T00:00:34;35.87;;;29.07;;
46589;SDS011;32313;48.722;9.362;2024-01-07T00:03:00;39.63;;;30.67;;
46589;SDS011;32313;48.722;9.362;2024-01-07T00:05:26;38.57;;;30.20;;
46589;SDS011;32313;48.722;9.362;2024-01-07T00:07:53;35.70;;;28.53;;
46589;SDS011;32313;48.722;9.362;2024-01-07T00:10:18;40.93;;;30.00;;
46589;SDS011;32313;48.722;9.362;2024-01-07T00:12:44;37.10;;;27.57;;
46589;SDS011;32313;48.722;9.362;2024-01-07T00:15:10;37.20;;;30.17;;
46589;SDS011;32313;48.722;9.362;2024-01-07T00:17:35;38.33;;;29.87;;
46589;SDS011;32313;48.722;9.362;2024-01-07T00:20:01;34.60;;;28.37;;
46589;SDS011;32313;48.722;9.362;2024-01-07T00:22:27;38.10;;;29.43;;
46589;SDS011;32313;48.722;9.362;2024-01-07T00:24:52;42.93;;;32.40;;
46589;SDS011;32313;48.722;9.362;2024-01-07T00:27:18;43.27;;;31.87;;
46589;SDS011;32313;48.722;9.362;2024-01-07T00:29:44;41.40;;;32.70;;
46589;SDS011;32313;48.722;9.362;2024-01-07T00:32:09;41.23;;;31.33;;
46589;SDS011;32313;48.722;9.362;2024-01-07T00:34:35;38.87;;;30.77;;
46589;SDS011;32313;48.722;9.362;2024-01-07T00:37:00;38.77;;;30.70;;
46589;SDS011;32313;48.722;9.362;2024-01-07T00:39:26;40.73;;;30.30;;
46589;SDS011;32313;48.722;9.362;2024-01-07T00:41:52;45.87;;;34.23;;
46589;SDS011;32313;48.722;9.362;2024-01-07T00:44:17;39.40;;;30.97;;
46589;SDS011;32313;48.722;9.362;2024-01-07T00:46:44;40.93;;;31.60;;
46589;SDS011;32313;48.722;9.362;2024-01-07T00:49:09;45.10;;;33.50;;
46589;SDS011;32313;48.722;9.362;2024-01-07T00:51:35;41.97;;;32.37;;
46589;SDS011;32313;48.722;9.362;2024-01-07T00:54:01;39.63;;;30.77;;
46589;SDS011;32313;48.722;9.362;2024-01-07T00:56:27;42.50;;;32.50;;
46589;SDS011;32313;48.722;9.362;2024-01-07T00:58:53;44.67;;;32.97;;
46589;SDS011;32313;48.722;9.362;2024-01-07T01:01:19;45.93;;;32.80;;
46589;SDS011;32313;48.722;9.362;2024-01-07T01:03:44;46.27;;;30.67;;
46589;SDS011;32313;48.722;9.362;2024-01-07T01:06:10;42.80;;;31.50;;
46589;SDS011;32313;48.722;9.362;2024-01-07T01:08:36;42.67;;;31.70;;
46589;SDS011;32313;48.722;9.362;2024-01-07T01:11:02;42.97;;;31.27;;
46589;SDS011;32313;48.722;9.362;2024-01-07T01:13:28;42.30;;;30.77;;
46589;SDS011;32313;48.722;9.362;2024-01-07T01:15:53;40.87;;;31.13;;
46589;SDS011;32313;48.722;9.362;2024-01-07T01:18:20;38.30;;;28.53;;
46589;SDS011;32313;48.722;9.362;2024-01-07T01:20:46;37.37;;;26.73;;
46589;SDS011;32313;48.722;9.362;2024-01-07T01:23:11;34.63;;;27.00;;
46589;SDS011;32313;48.722;9.362;2024-01-07T01:25:37;37.77;;;28.07;;
46589;SDS011;32313;48.722;9.362;2024-01-07T01:28:05;37.43;;;27.77;;
46589;SDS011;32313;48.722;9.362;2024-01-07T01:30:30;40.40;;;29.93;;
46589;SDS011;32313;48.722;9.362;2024-01-07T01:32:57;37.47;;;28.83;;
46589;SDS011;32313;48.722;9.362;2024-01-07T01:35:22;37.90;;;27.33;;
46589;SDS011;32313;48.722;9.362;2024-01-07T01:37:48;36.03;;;26.93;;
46589;SDS011;32313;48.722;9.362;2024-01-07T01:40:18;38.10;;;27.90;;
46589;SDS011;32313;48.722;9.362;2024-01-07T01:42:44;33.37;;;26.17;;
46589;SDS011;32313;48.722;9.362;2024-01-07T01:45:10;31.87;;;25.10;;
46589;SDS011;32313;48.722;9.362;2024-01-07T01:47:36;33.77;;;26.47;;
46589;SDS011;32313;48.722;9.362;2024-01-07T01:50:01;33.67;;;25.93;;
46589;SDS011;32313;48.722;9.362;2024-01-07T01:52:27;36.80;;;26.67;;
46589;SDS011;32313;48.722;9.362;2024-01-07T01:54:53;33.60;;;26.60;;
46589;SDS011;32313;48.722;9.362;2024-01-07T01:57:20;35.50;;;26.10;;
46589;SDS011;32313;48.722;9.362;2024-01-07T01:59:48;32.93;;;26.23;;
46589;SDS011;32313;48.722;9.362;2024-01-07T02:02:14;36.47;;;27.63;;
46589;SDS011;32313;48.722;9.362;2024-01-07T02:04:40;32.87;;;26.57;;
46589;SDS011;32313;48.722;9.362;2024-01-07T02:07:06;34.67;;;26.17;;
46589;SDS011;32313;48.722;9.362;2024-01-07T02:09:31;34.40;;;25.90;;
46589;SDS011;32313;48.722;9.362;2024-01-07T02:12:03;29.50;;;22.40;;
46589;SDS011;32313;48.722;9.362;2024-01-07T02:14:30;31.27;;;24.40;;
46589;SDS011;32313;48.722;9.362;2024-01-07T02:16:56;33.80;;;26.43;;
46589;SDS011;32313;48.722;9.362;2024-01-07T02:19:22;28.73;;;22.47;;
46589;SDS011;32313;48.722;9.362;2024-01-07T02:21:51;31.17;;;25.23;;
46589;SDS011;32313;48.722;9.362;2024-01-07T02:24:17;33.37;;;24.40;;
46589;SDS011;32313;48.722;9.362;2024-01-07T02:26:43;28.40;;;24.37;;
46589;SDS011;32313;48.722;9.362;2024-01-07T02:29:08;32.47;;;24.97;;
46589;SDS011;32313;48.722;9.362;2024-01-07T02:31:34;29.67;;;24.77;;
46589;SDS011;32313;48.722;9.362;2024-01-07T02:34:00;30.40;;;24.53;;
46589;SDS011;32313;48.722;9.362;2024-01-07T02:36:25;31.03;;;24.17;;
46589;SDS011;32313;48.722;9.362;2024-01-07T02:38:51;28.90;;;23.90;;
46589;SDS011;32313;48.722;9.362;2024-01-07T02:41:17;29.03;;;23.43;;
46589;SDS011;32313;48.722;9.362;2024-01-07T02:43:42;31.73;;;24.80;;
46589;SDS011;32313;48.722;9.362;2024-01-07T02:46:08;33.43;;;26.17;;
46589;SDS011;32313;48.722;9.362;2024-01-07T02:48:34;31.37;;;24.23;;
46589;SDS011;32313;48.722;9.362;2024-01-07T02:51:01;31.70;;;24.07;;
46589;SDS011;32313;48.722;9.362;2024-01-07T02:53:28;28.47;;;23.23;;
46589;SDS011;32313;48.722;9.362;2024-01-07T02:55:54;25.87;;;22.17;;
46589;SDS011;32313;48.722;9.362;2024-01-07T02:58:19;28.27;;;23.33;;
46589;SDS011;32313;48.722;9.362;2024-01-07T03:00:45;31.53;;;23.63;;
46589;SDS011;32313;48.722;9.362;2024-01-07T03:03:11;27.33;;;21.97;;
46589;SDS011;32313;48.722;9.362;2024-01-07T03:05:37;27.63;;;22.90;;
46589;SDS011;32313;48.722;9.362;2024-01-07T03:08:02;30.83;;;24.33;;
46589;SDS011;32313;48.722;9.362;2024-01-07T03:10:28;28.70;;;23.33;;
46589;SDS011;32313;48.722;9.362;2024-01-07T03:12:54;30.20;;;23.93;;
46589;SDS011;32313;48.722;9.362;2024-01-07T03:15:19;31.13;;;24.47;;
46589;SDS011;32313;48.722;9.362;2024-01-07T03:17:45;27.87;;;22.33;;
46589;SDS011;32313;48.722;9.362;2024-01-07T03:20:11;29.30;;;24.07;;
46589;SDS011;32313;48.722;9.362;2024-01-07T03:22:37;32.40;;;25.17;;
46589;SDS011;32313;48.722;9.362;2024-01-07T03:25:03;30.33;;;25.03;;
46589;SDS011;32313;48.722;9.362;2024-01-07T03:27:29;28.97;;;24.43;;
46589;SDS011;32313;48.722;9.362;2024-01-07T03:29:54;27.60;;;22.93;;
46589;SDS011;32313;48.722;9.362;2024-01-07T03:32:20;29.53;;;24.60;;
46589;SDS011;32313;48.722;9.362;2024-01-07T03:34:47;25.27;;;21.90;;
46589;SDS011;32313;48.722;9.362;2024-01-07T03:37:12;30.30;;;24.87;;
46589;SDS011;32313;48.722;9.362;2024-01-07T03:39:38;25.57;;;22.80;;
46589;SDS011;32313;48.722;9.362;2024-01-07T03:42:04;28.13;;;22.90;;
46589;SDS011;32313;48.722;9.362;2024-01-07T03:44:36;26.13;;;22.57;;
46589;SDS011;32313;48.722;9.362;2024-01-07T03:47:03;24.80;;;22.10;;
46589;SDS011;32313;48.722;9.362;2024-01-07T03:49:28;25.63;;;22.80;;
46589;SDS011;32313;48.722;9.362;2024-01-07T03:51:56;24.67;;;22.07;;
46589;SDS011;32313;48.722;9.362;2024-01-07T03:54:21;24.93;;;21.43;;
46589;SDS011;32313;48.722;9.362;2024-01-07T03:56:47;25.30;;;20.77;;
46589;SDS011;32313;48.722;9.362;2024-01-07T03:59:13;26.50;;;21.50;;
46589;SDS011;32313;48.722;9.362;2024-01-07T04:01:38;23.33;;;20.90;;
46589;SDS011;32313;48.722;9.362;2024-01-07T04:04:04;25.67;;;21.10;;
46589;SDS011;32313;48.722;9.362;2024-01-07T04:06:30;24.10;;;21.60;;
46589;SDS011;32313;48.722;9.362;2024-01-07T04:08:55;26.97;;;22.17;;
46589;SDS011;32313;48.722;9.362;2024-01-07T04:11:21;26.23;;;23.00;;
46589;SDS011;32313;48.722;9.362;2024-01-07T04:13:46;30.23;;;23.90;;
46589;SDS011;32313;48.722;9.362;2024-01-07T04:16:16;25.70;;;22.93;;
46589;SDS011;32313;48.722;9.362;2024-01-07T04:18:45;25.10;;;22.40;;
46589;SDS011;32313;48.722;9.362;2024-01-07T04:21:11;26.43;;;23.60;;
46589;SDS011;32313;48.722;9.362;2024-01-07T04:23:40;26.33;;;22.20;;
46589;SDS011;32313;48.722;9.362;2024-01-07T04:26:09;26.60;;;22.87;;
46589;SDS011;32313;48.722;9.362;2024-01-07T04:28:35;25.23;;;22.60;;
46589;SDS011;32313;48.722;9.362;2024-01-07T04:31:01;25.03;;;22.10;;
46589;SDS011;32313;48.722;9.362;2024-01-07T04:33:26;25.57;;;22.60;;
46589;SDS011;32313;48.722;9.362;2024-01-07T04:35:52;25.90;;;23.17;;
46589;SDS011;32313;48.722;9.362;2024-01-07T04:38:22;25.90;;;22.17;;
46589;SDS011;32313;48.722;9.362;2024-01-07T04:40:48;24.67;;;21.97;;
46589;SDS011;32313;48.722;9.362;2024-01-07T04:43:14;24.07;;;21.60;;
46589;SDS011;32313;48.722;9.362;2024-01-07T04:45:40;23.67;;;21.27;;
46589;SDS011;32313;48.722;9.362;2024-01-07T04:48:06;27.27;;;23.90;;
46589;SDS011;32313;48.722;9.362;2024-01-07T04:50:32;28.73;;;24.23;;
46589;SDS011;32313;48.722;9.362;2024-01-07T04:52:58;24.77;;;22.03;;
46589;SDS011;32313;48.722;9.362;2024-01-07T04:55:23;29.50;;;24.47;;
46589;SDS011;32313;48.722;9.362;2024-01-07T04:57:49;27.10;;;23.77;;
46589;SDS011;32313;48.722;9.362;2024-01-07T05:00:15;25.73;;;22.47;;
46589;SDS011;32313;48.722;9.362;2024-01-07T05:02:41;24.33;;;21.83;;
46589;SDS011;32313;48.722;9.362;2024-01-07T05:05:10;25.00;;;22.23;;
46589;SDS011;32313;48.722;9.362;2024-01-07T05:07:35;24.00;;;21.33;;
46589;SDS011;32313;48.722;9.362;2024-01-07T05:10:03;28.07;;;23.73;;
46589;SDS011;32313;48.722;9.362;2024-01-07T05:12:29;24.00;;;21.60;;
46589;SDS011;32313;48.722;9.362;2024-01-07T05:14:55;26.80;;;23.60;;
46589;SDS011;32313;48.722;9.362;2024-01-07T05:17:20;24.70;;;22.10;;
46589;SDS011;32313;48.722;9.362;2024-01-07T05:19:46;26.00;;;23.37;;
46589;SDS011;32313;48.722;9.362;2024-01-07T05:22:12;25.73;;;22.83;;
46589;SDS011;32313;48.722;9.362;2024-01-07T05:24:37;24.23;;;21.63;;
46589;SDS011;32313;48.722;9.362;2024-01-07T05:27:03;25.37;;;22.80;;
46589;SDS011;32313;48.722;9.362;2024-01-07T05:29:30;23.77;;;21.27;;
46589;SDS011;32313;48.722;9.362;2024-01-07T05:31:55;24.47;;;22.10;;
46589;SDS011;32313;48.722;9.362;2024-01-07T05:34:21;24.17;;;21.70;;
46589;SDS011;32313;48.722;9.362;2024-01-07T05:36:47;25.23;;;22.83;;
46589;SDS011;32313;48.722;9.362;2024-01-07T05:39:12;26.07;;;23.27;;
46589;SDS011;32313;48.722;9.362;2024-01-07T05:41:38;25.17;;;22.67;;
46589;SDS011;32313;48.722;9.362;2024-01-07T05:44:06;24.53;;;22.17;;
46589;SDS011;32313;48.722;9.362;2024-01-07T05:46:31;24.53;;;22.00;;
46589;SDS011;32313;48.722;9.362;2024-01-07T05:48:58;25.87;;;23.17;;
46589;SDS011;32313;48.722;9.362;2024-01-07T05:51:24;24.80;;;22.20;;
46589;SDS011;32313;48.722;9.362;2024-01-07T05:53:49;26.20;;;23.50;;
46589;SDS011;32313;48.722;9.362;2024-01-07T05:56:15;25.37;;;22.97;;
46589;SDS011;32313;48.722;9.362;2024-01-07T05:58:41;25.13;;;22.57;;
46589;SDS011;32313;48.722;9.362;2024-01-07T06:01:07;27.20;;;24.33;;
46589;SDS011;32313;48.722;9.362;2024-01-07T06:03:33;25.00;;;22.43;;
46589;SDS011;32313;48.722;9.362;2024-01-07T06:05:59;24.97;;;22.60;;
46589;SDS011;32313;48.722;9.362;2024-01-07T06:08:25;26.00;;;23.37;;
46589;SDS011;32313;48.722;9.362;2024-01-07T06:10:51;26.73;;;23.97;;
46589;SDS011;32313;48.722;9.362;2024-01-07T06:13:17;25.23;;;22.67;;
46589;SDS011;32313;48.722;9.362;2024-01-07T06:15:43;26.17;;;22.80;;
46589;SDS011;32313;48.722;9.362;2024-01-07T06:18:09;25.73;;;22.57;;
46589;SDS011;32313;48.722;9.362;2024-01-07T06:20:34;23.57;;;21.07;;
46589;SDS011;32313;48.722;9.362;2024-01-07T06:23:00;26.73;;;23.97;;
46589;SDS011;32313;48.722;9.362;2024-01-07T06:25:26;28.33;;;25.43;;
46589;SDS011;32313;48.722;9.362;2024-01-07T06:27:51;26.40;;;23.80;;
46589;SDS011;32313;48.722;9.362;2024-01-07T06:30:17;26.60;;;23.80;;
46589;SDS011;32313;48.722;9.362;2024-01-07T06:32:44;27.67;;;24.77;;
46589;SDS011;32313;48.722;9.362;2024-01-07T06:35:13;28.60;;;25.60;;
46589;SDS011;32313;48.722;9.362;2024-01-07T06:37:38;25.47;;;22.87;;
46589;SDS011;32313;48.722;9.362;2024-01-07T06:40:04;27.53;;;24.33;;
46589;SDS011;32313;48.722;9.362;2024-01-07T06:42:30;28.03;;;25.13;;
46589;SDS011;32313;48.722;9.362;2024-01-07T06:44:56;27.53;;;24.47;;
46589;SDS011;32313;48.722;9.362;2024-01-07T06:47:22;27.00;;;24.10;;
46589;SDS011;32313;48.722;9.362;2024-01-07T06:49:47;27.73;;;24.93;;
46589;SDS011;32313;48.722;9.362;2024-01-07T06:52:13;30.27;;;27.27;;
46589;SDS011;32313;48.722;9.362;2024-01-07T06:54:39;27.13;;;24.47;;
46589;SDS011;32313;48.722;9.362;2024-01-07T06:57:04;27.90;;;25.00;;
46589;SDS011;32313;48.722;9.362;2024-01-07T06:59:30;30.47;;;27.27;;
46589;SDS011;32313;48.722;9.362;2024-01-07T07:01:56;29.60;;;26.47;;
46589;SDS011;32313;48.722;9.362;2024-01-07T07:04:22;31.00;;;27.57;;
46589;SDS011;32313;48.722;9.362;2024-01-07T07:06:48;28.33;;;25.53;;
46589;SDS011;32313;48.722;9.362;2024-01-07T07:09:13;29.47;;;26.37;;
46589;SDS011;32313;48.722;9.362;2024-01-07T07:11:40;32.47;;;27.50;;
46589;SDS011;32313;48.722;9.362;2024-01-07T07:14:06;31.10;;;27.87;;
46589;SDS011;32313;48.722;9.362;2024-01-07T07:16:32;30.33;;;27.10;;
46589;SDS011;32313;48.722;9.362;2024-01-07T07:18:57;30.30;;;27.10;;
46589;SDS011;32313;48.722;9.362;2024-01-07T07:21:23;29.67;;;26.50;;
46589;SDS011;32313;48.722;9.362;2024-01-07T07:23:49;26.07;;;23.33;;
46589;SDS011;32313;48.722;9.362;2024-01-07T07:26:14;29.00;;;26.10;;
46589;SDS011;32313;48.722;9.362;2024-01-07T07:28:40;30.90;;;27.87;;
46589;SDS011;32313;48.722;9.362;2024-01-07T07:31:06;30.90;;;26.43;;
46589;SDS011;32313;48.722;9.362;2024-01-07T07:33:32;33.67;;;28.63;;
46589;SDS011;32313;48.722;9.362;2024-01-07T07:35:58;29.30;;;26.20;;
46589;SDS011;32313;48.722;9.362;2024-01-07T07:38:23;30.90;;;27.60;;
46589;SDS011;32313;48.722;9.362;2024-01-07T07:40:49;32.13;;;28.10;;
46589;SDS011;32313;48.722;9.362;2024-01-07T07:43:18;30.03;;;26.77;;
46589;SDS011;32313;48.722;9.362;2024-01-07T07:45:45;27.70;;;24.80;;
46589;SDS011;32313;48.722;9.362;2024-01-07T07:48:11;28.53;;;25.63;;
46589;SDS011;32313;48.722;9.362;2024-01-07T07:50:37;29.80;;;26.73;;
46589;SDS011;32313;48.722;9.362;2024-01-07T07:53:03;30.97;;;27.67;;
46589;SDS011;32313;48.722;9.362;2024-01-07T07:55:29;31.33;;;27.93;;
46589;SDS011;32313;48.722;9.362;2024-01-07T07:57:54;32.50;;;27.40;;
46589;SDS011;32313;48.722;9.362;2024-01-07T08:00:20;26.40;;;23.67;;
46589;SDS011;32313;48.722;9.362;2024-01-07T08:02:46;25.00;;;22.40;;
46589;SDS011;32313;48.722;9.362;2024-01-07T08:05:12;22.50;;;20.10;;
46589;SDS011;32313;48.722;9.362;2024-01-07T08:07:38;23.50;;;21.20;;
46589;SDS011;32313;48.722;9.362;2024-01-07T08:10:04;20.37;;;18.47;;
46589;SDS011;32313;48.722;9.362;2024-01-07T08:12:31;20.17;;;18.17;;
46589;SDS011;32313;48.722;9.362;2024-01-07T08:14:56;18.33;;;16.53;;
46589;SDS011;32313;48.722;9.362;2024-01-07T08:17:22;17.73;;;16.13;;
46589;SDS011;32313;48.722;9.362;2024-01-07T08:19:48;18.17;;;16.47;;
46589;SDS011;32313;48.722;9.362;2024-01-07T08:22:13;18.90;;;17.10;;
46589;SDS011;32313;48.722;9.362;2024-01-07T08:24:39;17.13;;;15.50;;
46589;SDS011;32313;48.722;9.362;2024-01-07T08:27:05;17.13;;;15.40;;
46589;SDS011;32313;48.722;9.362;2024-01-07T08:29:30;16.87;;;15.10;;
46589;SDS011;32313;48.722;9.362;2024-01-07T08:32:02;17.37;;;15.57;;
46589;SDS011;32313;48.722;9.362;2024-01-07T08:34:28;16.47;;;14.80;;
46589;SDS011;32313;48.722;9.362;2024-01-07T08:36:53;17.17;;;15.57;;
46589;SDS011;32313;48.722;9.362;2024-01-07T08:39:19;18.37;;;16.47;;
46589;SDS011;32313;48.722;9.362;2024-01-07T08:41:45;14.93;;;13.53;;
46589;SDS011;32313;48.722;9.362;2024-01-07T08:44:12;17.17;;;15.57;;
46589;SDS011;32313;48.722;9.362;2024-01-07T08:46:38;18.43;;;16.33;;
46589;SDS011;32313;48.722;9.362;2024-01-07T08:49:03;16.87;;;15.33;;
46589;SDS011;32313;48.722;9.362;2024-01-07T08:51:29;18.37;;;16.67;;
46589;SDS011;32313;48.722;9.362;2024-01-07T08:53:55;18.10;;;16.20;;
46589;SDS011;32313;48.722;9.362;2024-01-07T08:56:22;17.53;;;15.83;;
46589;SDS011;32313;48.722;9.362;2024-01-07T08:58:48;15.73;;;14.23;;
46589;SDS011;32313;48.722;9.362;2024-01-07T09:01:14;15.33;;;13.90;;
46589;SDS011;32313;48.722;9.362;2024-01-07T09:03:40;16.83;;;15.13;;
46589;SDS011;32313;48.722;9.362;2024-01-07T09:06:06;17.03;;;15.33;;
46589;SDS011;32313;48.722;9.362;2024-01-07T09:08:33;17.37;;;15.67;;
46589;SDS011;32313;48.722;9.362;2024-01-07T09:10:59;15.03;;;13.53;;
46589;SDS011;32313;48.722;9.362;2024-01-07T09:13:26;14.47;;;13.17;;
46589;SDS011;32313;48.722;9.362;2024-01-07T09:15:52;13.93;;;12.73;;
46589;SDS011;32313;48.722;9.362;2024-01-07T09:18:18;13.33;;;12.13;;
46589;SDS011;32313;48.722;9.362;2024-01-07T09:20:44;13.47;;;12.27;;
46589;SDS011;32313;48.722;9.362;2024-01-07T09:23:09;15.07;;;13.77;;
46589;SDS011;32313;48.722;9.362;2024-01-07T09:25:35;13.73;;;12.43;;
46589;SDS011;32313;48.722;9.362;2024-01-07T09:28:01;13.47;;;12.23;;
46589;SDS011;32313;48.722;9.362;2024-01-07T09:30:26;14.13;;;12.83;;
46589;SDS011;32313;48.722;9.362;2024-01-07T09:32:52;14.07;;;12.97;;
46589;SDS011;32313;48.722;9.362;2024-01-07T09:35:18;13.27;;;12.27;;
46589;SDS011;32313;48.722;9.362;2024-01-07T09:37:43;13.27;;;12.07;;
46589;SDS011;32313;48.722;9.362;2024-01-07T09:40:12;13.03;;;11.83;;
46589;SDS011;32313;48.722;9.362;2024-01-07T09:42:44;13.87;;;12.67;;
46589;SDS011;32313;48.722;9.362;2024-01-07T09:45:10;15.23;;;13.73;;
46589;SDS011;32313;48.722;9.362;2024-01-07T09:47:39;13.90;;;12.60;;
46589;SDS011;32313;48.722;9.362;2024-01-07T09:50:06;14.07;;;12.77;;
46589;SDS011;32313;48.722;9.362;2024-01-07T09:52:34;13.80;;;12.57;;
46589;SDS011;32313;48.722;9.362;2024-01-07T09:55:02;13.23;;;12.07;;
46589;SDS011;32313;48.722;9.362;2024-01-07T09:57:31;14.23;;;12.93;;
46589;SDS011;32313;48.722;9.362;2024-01-07T09:59:57;13.50;;;12.27;;
46589;SDS011;32313;48.722;9.362;2024-01-07T10:02:24;13.63;;;12.43;;
46589;SDS011;32313;48.722;9.362;2024-01-07T10:04:50;13.53;;;12.30;;
46589;SDS011;32313;48.722;9.362;2024-01-07T10:07:16;12.80;;;11.77;;
46589;SDS011;32313;48.722;9.362;2024-01-07T10:09:42;14.40;;;13.07;;
46589;SDS011;32313;48.722;9.362;2024-01-07T10:12:09;13.87;;;12.57;;
46589;SDS011;32313;48.722;9.362;2024-01-07T10:14:35;14.13;;;12.93;;
46589;SDS011;32313;48.722;9.362;2024-01-07T10:17:00;13.93;;;12.80;;
46589;SDS011;32313;48.722;9.362;2024-01-07T10:19:26;14.63;;;13.43;;
46589;SDS011;32313;48.722;9.362;2024-01-07T10:22:02;13.87;;;12.67;;
46589;SDS011;32313;48.722;9.362;2024-01-07T10:24:38;13.50;;;12.23;;
46589;SDS011;32313;48.722;9.362;2024-01-07T10:27:05;15.00;;;13.60;;
46589;SDS011;32313;48.722;9.362;2024-01-07T10:29:32;14.07;;;12.77;;
46589;SDS011;32313;48.722;9.362;2024-01-07T10:31:58;15.43;;;14.03;;
46589;SDS011;32313;48.722;9.362;2024-01-07T10:34:28;17.30;;;15.63;;
46589;SDS011;32313;48.722;9.362;2024-01-07T10:36:56;15.77;;;14.10;;
46589;SDS011;32313;48.722;9.362;2024-01-07T10:39:24;17.63;;;16.00;;
46589;SDS011;32313;48.722;9.362;2024-01-07T10:41:51;17.00;;;15.37;;
46589;SDS011;32313;48.722;9.362;2024-01-07T10:44:22;17.30;;;15.70;;
46589;SDS011;32313;48.722;9.362;2024-01-07T10:46:55;16.57;;;14.97;;
46589;SDS011;32313;48.722;9.362;2024-01-07T10:49:21;18.00;;;16.30;;
46589;SDS011;32313;48.722;9.362;2024-01-07T10:51:50;17.40;;;15.80;;
46589;SDS011;32313;48.722;9.362;2024-01-07T10:54:28;16.57;;;14.83;;
46589;SDS011;32313;48.722;9.362;2024-01-07T10:56:56;15.73;;;14.33;;
46589;SDS011;32313;48.722;9.362;2024-01-07T10:59:25;18.17;;;16.47;;
46589;SDS011;32313;48.722;9.362;2024-01-07T11:01:53;16.53;;;14.93;;
46589;SDS011;32313;48.722;9.362;2024-01-07T11:07:29;16.93;;;15.43;;
46589;SDS011;32313;48.722;9.362;2024-01-07T11:10:08;15.87;;;14.27;;
46589;SDS011;32313;48.722;9.362;2024-01-07T11:12:38;15.07;;;13.67;;
46589;SDS011;32313;48.722;9.362;2024-01-07T11:15:06;16.37;;;14.87;;
46589;SDS011;32313;48.722;9.362;2024-01-07T11:19:59;14.63;;;13.40;;
46589;SDS011;32313;48.722;9.362;2024-01-07T11:22:28;15.47;;;14.07;;
46589;SDS011;32313;48.722;9.362;2024-01-07T11:24:57;14.30;;;12.93;;
46589;SDS011;32313;48.722;9.362;2024-01-07T11:27:29;15.47;;;14.10;;
46589;SDS011;32313;48.722;9.362;2024-01-07T11:32:44;15.00;;;13.60;;
46589;SDS011;32313;48.722;9.362;2024-01-07T11:35:13;16.53;;;15.13;;
46589;SDS011;32313;48.722;9.362;2024-01-07T11:37:40;14.77;;;13.57;;
46589;SDS011;32313;48.722;9.362;2024-01-07T11:40:07;15.00;;;13.50;;
46589;SDS011;32313;48.722;9.362;2024-01-07T11:42:33;15.20;;;13.80;;
46589;SDS011;32313;48.722;9.362;2024-01-07T11:44:59;15.80;;;14.27;;
46589;SDS011;32313;48.722;9.362;2024-01-07T11:47:25;14.13;;;12.93;;
46589;SDS011;32313;48.722;9.362;2024-01-07T11:49:53;15.00;;;13.60;;
46589;SDS011;32313;48.722;9.362;2024-01-07T11:52:19;15.23;;;13.93;;
46589;SDS011;32313;48.722;9.362;2024-01-07T11:54:46;14.90;;;13.60;;
46589;SDS011;32313;48.722;9.362;2024-01-07T11:57:13;14.73;;;13.47;;
46589;SDS011;32313;48.722;9.362;2024-01-07T11:59:38;15.53;;;14.13;;
46589;SDS011;32313;48.722;9.362;2024-01-07T12:02:04;14.87;;;13.57;;
46589;SDS011;32313;48.722;9.362;2024-01-07T12:04:31;14.13;;;12.93;;
46589;SDS011;32313;48.722;9.362;2024-01-07T12:06:57;13.87;;;12.67;;
46589;SDS011;32313;48.722;9.362;2024-01-07T12:09:25;14.03;;;12.83;;
46589;SDS011;32313;48.722;9.362;2024-01-07T12:11:51;13.17;;;12.07;;
46589;SDS011;32313;48.722;9.362;2024-01-07T12:14:17;12.93;;;11.83;;
46589;SDS011;32313;48.722;9.362;2024-01-07T12:16:44;14.20;;;12.90;;
46589;SDS011;32313;48.722;9.362;2024-01-07T12:19:10;13.30;;;12.10;;
46589;SDS011;32313;48.722;9.362;2024-01-07T12:21:36;13.70;;;12.60;;
46589;SDS011;32313;48.722;9.362;2024-01-07T12:24:03;12.73;;;11.70;;
46589;SDS011;32313;48.722;9.362;2024-01-07T12:26:29;13.97;;;12.87;;
46589;SDS011;32313;48.722;9.362;2024-01-07T12:28:58;14.37;;;13.27;;
46589;SDS011;32313;48.722;9.362;2024-01-07T12:31:29;13.47;;;12.37;;
46589;SDS011;32313;48.722;9.362;2024-01-07T12:33:56;14.43;;;13.23;;
46589;SDS011;32313;48.722;9.362;2024-01-07T12:36:23;13.87;;;12.63;;
46589;SDS011;32313;48.722;9.362;2024-01-07T12:38:49;16.03;;;14.50;;
46589;SDS011;32313;48.722;9.362;2024-01-07T12:41:19;16.00;;;14.67;;
46589;SDS011;32313;48.722;9.362;2024-01-07T12:43:45;15.63;;;14.43;;
46589;SDS011;32313;48.722;9.362;2024-01-07T12:46:12;16.07;;;14.67;;
46589;SDS011;32313;48.722;9.362;2024-01-07T12:48:39;17.50;;;15.93;;
46589;SDS011;32313;48.722;9.362;2024-01-07T12:51:05;14.97;;;13.67;;
46589;SDS011;32313;48.722;9.362;2024-01-07T12:53:31;15.73;;;14.43;;
46589;SDS011;32313;48.722;9.362;2024-01-07T12:55:58;14.90;;;13.60;;
46589;SDS011;32313;48.722;9.362;2024-01-07T12:58:23;15.10;;;13.70;;
46589;SDS011;32313;48.722;9.362;2024-01-07T13:00:50;15.33;;;14.10;;
46589;SDS011;32313;48.722;9.362;2024-01-07T13:03:16;14.77;;;13.47;;
46589;SDS011;32313;48.722;9.362;2024-01-07T13:05:46;14.57;;;13.37;;
46589;SDS011;32313;48.722;9.362;2024-01-07T13:08:15;15.27;;;13.97;;
46589;SDS011;32313;48.722;9.362;2024-01-07T13:10:43;15.93;;;14.53;;
46589;SDS011;32313;48.722;9.362;2024-01-07T13:13:11;15.70;;;14.30;;
46589;SDS011;32313;48.722;9.362;2024-01-07T13:15:37;17.23;;;15.53;;
46589;SDS011;32313;48.722;9.362;2024-01-07T13:18:04;16.83;;;15.37;;
46589;SDS011;32313;48.722;9.362;2024-01-07T13:20:30;15.07;;;13.90;;
46589;SDS011;32313;48.722;9.362;2024-01-07T13:22:55;16.37;;;14.97;;
46589;SDS011;32313;48.722;9.362;2024-01-07T13:25:21;17.73;;;16.27;;
46589;SDS011;32313;48.722;9.362;2024-01-07T13:27:47;18.20;;;16.30;;
46589;SDS011;32313;48.722;9.362;2024-01-07T13:30:13;17.83;;;16.23;;
46589;SDS011;32313;48.722;9.362;2024-01-07T13:32:38;17.77;;;16.10;;
46589;SDS011;32313;48.722;9.362;2024-01-07T13:35:05;16.47;;;14.97;;
46589;SDS011;32313;48.722;9.362;2024-01-07T13:37:39;19.00;;;17.30;;
46589;SDS011;32313;48.722;9.362;2024-01-07T13:40:08;20.63;;;18.83;;
46589;SDS011;32313;48.722;9.362;2024-01-07T13:42:39;20.27;;;18.30;;
46589;SDS011;32313;48.722;9.362;2024-01-07T13:45:05;21.60;;;19.60;;
46589;SDS011;32313;48.722;9.362;2024-01-07T13:47:31;21.70;;;19.70;;
46589;SDS011;32313;48.722;9.362;2024-01-07T13:49:57;23.33;;;21.03;;
46589;SDS011;32313;48.722;9.362;2024-01-07T13:52:22;23.50;;;21.20;;
46589;SDS011;32313;48.722;9.362;2024-01-07T13:54:48;21.90;;;19.80;;
46589;SDS011;32313;48.722;9.362;2024-01-07T13:57:14;20.37;;;18.37;;
46589;SDS011;32313;48.722;9.362;2024-01-07T13:59:40;23.00;;;20.60;;
46589;SDS011;32313;48.722;9.362;2024-01-07T14:02:06;22.50;;;20.27;;
46589;SDS011;32313;48.722;9.362;2024-01-07T14:04:33;22.13;;;19.93;;
46589;SDS011;32313;48.722;9.362;2024-01-07T14:06:59;21.77;;;19.73;;
46589;SDS011;32313;48.722;9.362;2024-01-07T14:09:25;23.53;;;21.23;;
46589;SDS011;32313;48.722;9.362;2024-01-07T14:11:50;21.07;;;18.97;;
46589;SDS011;32313;48.722;9.362;2024-01-07T14:14:17;23.00;;;20.73;;
46589;SDS011;32313;48.722;9.362;2024-01-07T14:16:44;22.60;;;20.40;;
46589;SDS011;32313;48.722;9.362;2024-01-07T14:19:10;23.80;;;21.30;;
46589;SDS011;32313;48.722;9.362;2024-01-07T14:21:37;24.20;;;21.70;;
46589;SDS011;32313;48.722;9.362;2024-01-07T14:24:02;23.57;;;21.27;;